Duluth, MN (55811)

11:13 PM CST on February 07, 2016 (GMT -0600)
Duluth International | | Change Station
CLOSE
Current Station
Airport
Location: Duluth,
Elevation: 1427 ft
Nearby Weather Stations

Elev 1427 ft 46.84 °N, 92.19 °W | Updated 5 minutes ago

Light Snow
Light Snow Blowing Snow
18 °F
Feels Like 2 °F
N
18
Wind Variable Wind from NNW
Gusts 29 mph

Today
High -- | Low -- °F
--% Chance of Precip.
Yesterday
High -- | Low -- °F
Precip. -- in
Pressure 29.62 in
Visibility 6.0 miles
Clouds Overcast 1400 ft
Windchill 2 °F
Dew Point 12 °F
Humidity 78%
Rainfall 0.11 in
Snow Depth Not available.
7:25 AM 5:20 PM
Waning Crescent, 0% visible
SPECI KDLH 080508Z 33016G25KT 6SM -SN BLSN OVC014 M08/M11 A2962 RMK AO2 P0000 T10781111
Pressure 29.62 in
Visibility 6.0 miles
Clouds Overcast 1400 ft
Windchill 2 °F
Dew Point 12 °F
Humidity 78%
Rainfall 0.11 in
Snow Depth Not available.
7:25 AM 5:20 PM
Waning Crescent, 0% visible
SPECI KDLH 080508Z 33016G25KT 6SM -SN BLSN OVC014 M08/M11 A2962 RMK AO2 P0000 T10781111

10-Day Weather Forecast

Almanac

Astronomy

Feb. 07, 2016 Rise Set
Actual Time
Civil Twilight
Nautical Twilight
Astronomical Twilight
Moon
Length of Visible Light
Length of Day
Tomorrow will be .
, % of the Moon is Illuminated

Today's Extremes

State Highs State Lows

Community

WunderPhotos

Upload Photos

1,891,382 photos uploaded!

WunderBlog® & News

Nearby

Air Quality

  Air Quality AQ Index Pollutant
Not available.

Snow Depth

Station Depth Elevation

Earthquake Activity

City Distance Mag. Time & Date
Minimum magnitude displayed is 2.5.

Coastal Water Temperatures

Place Temperature

Stations

Nearby Weather Stations

Station Location Temp. Windchill Dew Point Humidity Wind Precip. Elev Updated Type
                   

Watches & Warnings

There are currently no watches in effect.